createdAt,value
2022-12-04T00:03:05.603Z,35.42
2022-12-04T00:08:06.786Z,39.53
2022-12-04T00:13:07.563Z,35.35
2022-12-04T00:18:08.356Z,38.05
2022-12-04T00:23:09.103Z,33.08
2022-12-04T00:28:09.875Z,40.33
2022-12-04T00:33:12.886Z,41.28
2022-12-04T00:43:14.401Z,40.88
2022-12-04T00:48:15.409Z,43.15
2022-12-04T00:53:16.904Z,39.40
2022-12-04T00:58:17.652Z,37.03
2022-12-04T01:03:18.503Z,37.08
2022-12-04T01:08:19.455Z,38.42
2022-12-04T01:13:22.389Z,39.58
2022-12-04T01:18:23.150Z,40.95
2022-12-04T01:23:23.934Z,42.13
2022-12-04T01:28:25.634Z,39.88
2022-12-04T01:33:27.294Z,37.95
2022-12-04T01:38:29.002Z,41.05
2022-12-04T01:43:32.365Z,37.38
2022-12-04T01:48:59.451Z,41.80
2022-12-04T01:54:04.567Z,38.75
2022-12-04T01:59:07.311Z,42.25
2022-12-04T02:04:08.092Z,40.25
2022-12-04T02:09:09.167Z,41.65
2022-12-04T02:14:30.988Z,40.47
2022-12-04T02:20:09.295Z,37.95
2022-12-04T02:27:04.497Z,43.50
2022-12-04T02:32:19.202Z,35.97
2022-12-04T02:39:02.214Z,40.75
2022-12-04T02:44:21.309Z,45.72
2022-12-04T02:49:38.205Z,37.95
2022-12-04T02:54:45.425Z,41.50
2022-12-04T02:59:48.934Z,44.80
2022-12-04T03:04:53.801Z,46.97
2022-12-04T03:10:17.785Z,42.65
2022-12-04T03:15:25.486Z,46.55
2022-12-04T03:20:28.494Z,44.38
2022-12-04T03:25:34.896Z,45.75
2022-12-04T03:30:41.005Z,48.70
2022-12-04T03:35:59.223Z,42.42
2022-12-04T03:41:36.538Z,47.92
2022-12-04T03:47:45.704Z,46.42
2022-12-04T03:52:58.280Z,46.37
2022-12-04T03:58:05.696Z,52.60
2022-12-04T04:03:13.475Z,50.08
2022-12-04T04:08:30.214Z,45.75
2022-12-04T04:14:14.366Z,40.60
2022-12-04T04:19:37.242Z,44.53
2022-12-04T04:24:54.218Z,46.47
2022-12-04T04:29:55.353Z,44.42
2022-12-04T04:36:53.340Z,42.50
2022-12-04T04:42:00.825Z,40.75
2022-12-04T04:47:06.081Z,41.25
2022-12-04T04:52:08.272Z,40.60
2022-12-04T04:57:09.102Z,41.42
2022-12-04T05:02:10.359Z,42.85
2022-12-04T05:07:11.649Z,45.03
2022-12-04T05:12:12.412Z,43.80
2022-12-04T05:17:13.826Z,42.92
2022-12-04T05:22:14.637Z,40.20
2022-12-04T05:27:15.444Z,41.03
2022-12-04T05:32:16.199Z,41.80
2022-12-04T05:37:17.691Z,41.58
2022-12-04T05:42:18.747Z,44.17
2022-12-04T05:47:19.688Z,40.20
2022-12-04T05:52:20.514Z,41.58
2022-12-04T05:57:24.168Z,44.08
2022-12-04T06:02:26.556Z,43.85
2022-12-04T06:07:27.581Z,37.97
2022-12-04T06:12:29.881Z,41.47
2022-12-04T06:17:30.658Z,41.33
2022-12-04T06:22:31.542Z,42.35
2022-12-04T06:27:32.298Z,41.75
2022-12-04T06:32:33.034Z,37.75
2022-12-04T06:37:33.962Z,40.92
2022-12-04T06:42:34.695Z,45.12
2022-12-04T06:47:35.863Z,39.20
2022-12-04T06:52:36.704Z,41.15
2022-12-04T06:57:37.431Z,40.83
2022-12-04T07:02:38.462Z,44.38
2022-12-04T07:07:39.642Z,41.58
2022-12-04T07:12:40.715Z,39.03
2022-12-04T07:17:41.449Z,37.50
2022-12-04T07:22:42.289Z,35.97
2022-12-04T07:27:43.270Z,36.80
2022-12-04T07:32:43.999Z,32.10
2022-12-04T07:37:47.185Z,29.70
2022-12-04T07:42:48.454Z,30.88
2022-12-04T07:47:49.188Z,28.48
2022-12-04T07:52:50.015Z,29.30
2022-12-04T07:57:50.767Z,26.70
2022-12-04T08:02:51.688Z,26.50
2022-12-04T08:07:52.475Z,26.27
2022-12-04T08:12:53.688Z,25.75
2022-12-04T08:17:54.419Z,24.85
2022-12-04T08:22:55.248Z,28.30
2022-12-04T08:27:56.066Z,28.42
2022-12-04T08:32:56.824Z,21.12
2022-12-04T08:37:57.553Z,23.80
2022-12-04T08:42:58.324Z,22.37
2022-12-04T08:47:59.182Z,25.62
2022-12-04T08:52:59.992Z,23.20
2022-12-04T08:58:00.816Z,22.55
2022-12-04T09:03:01.666Z,24.75
2022-12-04T09:08:02.714Z,21.08
2022-12-04T09:13:04.413Z,21.17
2022-12-04T09:18:06.327Z,18.98
2022-12-04T09:23:07.153Z,17.25
2022-12-04T09:28:07.872Z,21.37
2022-12-04T09:33:08.655Z,20.17
2022-12-04T09:38:09.408Z,19.30
2022-12-04T09:43:35.367Z,18.75
2022-12-04T09:48:40.322Z,20.90
2022-12-04T09:53:46.888Z,20.42
2022-12-04T09:59:18.927Z,18.50
2022-12-04T10:04:19.998Z,18.52
2022-12-04T10:09:35.945Z,21.02
2022-12-04T10:17:52.237Z,16.75
2022-12-04T10:23:13.572Z,16.30
2022-12-04T10:28:55.379Z,17.75
2022-12-04T10:34:03.218Z,16.65
2022-12-04T10:39:18.107Z,19.50
2022-12-04T10:44:20.082Z,19.40
2022-12-04T10:49:27.715Z,21.12
2022-12-04T10:55:01.767Z,22.75
2022-12-04T11:00:22.370Z,22.23
2022-12-04T11:05:54.719Z,19.90
2022-12-04T11:10:59.646Z,19.30
2022-12-04T11:16:00.911Z,20.10
2022-12-04T11:21:12.542Z,21.98
2022-12-04T11:26:14.596Z,20.70
2022-12-04T11:31:19.086Z,25.60
2022-12-04T11:36:28.256Z,18.10
2022-12-04T11:41:31.436Z,20.98
2022-12-04T11:55:08.879Z,17.83
2022-12-04T12:00:14.315Z,33.05
2022-12-04T12:05:49.862Z,29.52
2022-12-04T12:11:19.540Z,31.87
2022-12-04T12:18:31.183Z,36.90
2022-12-04T12:23:49.293Z,29.95
2022-12-04T12:29:19.717Z,28.45
2022-12-04T12:34:41.534Z,31.62
2022-12-04T12:41:20.315Z,28.62
2022-12-04T12:46:42.839Z,27.02
2022-12-04T12:52:16.866Z,28.33
2022-12-04T12:57:37.047Z,23.98
2022-12-04T13:05:48.417Z,28.92
2022-12-04T13:12:48.508Z,26.08
2022-12-04T13:17:52.547Z,26.27
2022-12-04T13:24:53.089Z,31.33
2022-12-04T13:30:20.688Z,25.17
2022-12-04T13:37:06.894Z,29.00
2022-12-04T13:42:22.151Z,25.23
2022-12-04T13:47:31.114Z,31.25
2022-12-04T13:52:40.526Z,27.62
2022-12-04T13:57:56.878Z,26.10
2022-12-04T14:03:24.226Z,30.58
2022-12-04T14:08:30.947Z,29.80
2022-12-04T14:14:06.464Z,30.77
2022-12-04T14:19:34.912Z,32.10
2022-12-04T14:24:39.104Z,31.95
2022-12-04T14:29:54.617Z,32.47
2022-12-04T14:34:56.286Z,38.53
2022-12-04T14:39:59.828Z,34.60
2022-12-04T14:45:04.794Z,32.15
2022-12-04T14:50:43.090Z,34.08
2022-12-04T14:58:54.571Z,36.15
2022-12-04T15:03:58.944Z,33.78
2022-12-04T15:09:21.896Z,29.48
2022-12-04T15:14:24.060Z,33.78
2022-12-04T15:19:24.902Z,36.50
2022-12-04T15:24:26.702Z,39.60
2022-12-04T15:29:34.022Z,37.78
2022-12-04T15:34:44.699Z,37.80
2022-12-04T15:39:46.233Z,38.53
2022-12-04T15:45:02.091Z,35.53
2022-12-04T15:55:27.227Z,35.08
2022-12-04T16:00:33.281Z,33.65
2022-12-04T16:05:36.517Z,30.70
2022-12-04T16:10:37.595Z,36.25
2022-12-04T16:15:43.076Z,36.58
2022-12-04T16:20:44.214Z,31.30
2022-12-04T16:25:44.998Z,38.80
2022-12-04T16:30:46.041Z,39.88
2022-12-04T16:35:46.884Z,38.45
2022-12-04T16:40:48.385Z,35.47
2022-12-04T16:45:53.864Z,37.75
2022-12-04T16:50:55.084Z,38.33
2022-12-04T16:55:55.846Z,41.97
2022-12-04T17:00:56.702Z,32.58
2022-12-04T17:05:59.532Z,33.25
2022-12-04T17:11:00.536Z,32.20
2022-12-04T17:16:01.442Z,27.33
2022-12-04T17:21:11.342Z,30.17
2022-12-04T17:26:14.072Z,33.22
2022-12-04T17:31:21.721Z,37.53
2022-12-04T17:36:25.497Z,33.60
2022-12-04T17:41:26.921Z,34.72
2022-12-04T17:46:27.981Z,33.67
2022-12-04T17:51:29.154Z,36.25
2022-12-04T17:56:30.280Z,32.50
2022-12-04T18:01:31.263Z,32.63
2022-12-04T18:06:37.674Z,31.05
2022-12-04T18:11:41.275Z,28.98
2022-12-04T18:16:45.662Z,32.05
2022-12-04T18:21:46.577Z,32.35
2022-12-04T18:26:48.488Z,35.15
2022-12-04T18:31:50.187Z,28.98
2022-12-04T18:36:51.484Z,29.42
2022-12-04T18:41:56.195Z,31.90
2022-12-04T18:46:57.020Z,29.23
2022-12-04T18:51:58.437Z,38.40
2022-12-04T18:56:59.424Z,29.20
2022-12-04T19:02:00.279Z,31.50
2022-12-04T19:07:04.104Z,31.42
2022-12-04T19:12:05.140Z,28.55
2022-12-04T19:17:06.045Z,27.40
2022-12-04T19:22:07.036Z,30.37
2022-12-04T19:27:11.358Z,25.48
2022-12-04T19:32:12.208Z,27.67
2022-12-04T19:37:13.159Z,23.52
2022-12-04T19:42:13.896Z,25.88
2022-12-04T19:47:14.746Z,21.02
2022-12-04T19:52:16.607Z,22.17
2022-12-04T19:57:17.429Z,17.98
2022-12-04T20:02:18.917Z,24.70
2022-12-04T20:07:20.244Z,38.40
2022-12-04T20:12:21.022Z,36.72
2022-12-04T20:17:21.758Z,22.55
2022-12-04T20:22:22.718Z,22.98
2022-12-04T20:27:23.552Z,17.08
2022-12-04T20:32:24.356Z,18.60
2022-12-04T20:37:25.408Z,17.92
2022-12-04T20:42:31.737Z,18.80
2022-12-04T20:47:35.636Z,15.13
2022-12-04T20:52:36.922Z,15.07
2022-12-04T20:57:37.724Z,15.35
2022-12-04T21:02:38.558Z,13.82
2022-12-04T21:07:39.532Z,23.83
2022-12-04T21:12:59.226Z,16.45
2022-12-04T21:18:00.885Z,18.60
2022-12-04T21:23:01.746Z,26.35
2022-12-04T21:28:02.489Z,38.42
2022-12-04T21:33:03.323Z,25.60
2022-12-04T21:38:04.027Z,19.75
2022-12-04T21:43:04.977Z,14.93
2022-12-04T21:48:05.748Z,13.20
2022-12-04T21:53:06.633Z,16.05
2022-12-04T21:58:07.599Z,16.67
2022-12-04T22:03:08.691Z,15.88
2022-12-04T22:08:11.855Z,12.02
2022-12-04T22:18:14.208Z,11.90
2022-12-04T22:23:15.026Z,9.38
2022-12-04T22:28:15.833Z,10.18
2022-12-04T22:33:16.559Z,9.73
2022-12-04T22:38:17.339Z,9.60
2022-12-04T22:43:18.045Z,9.35
2022-12-04T22:48:19.930Z,8.45
2022-12-04T22:53:20.752Z,8.27
2022-12-04T22:58:21.834Z,8.15
2022-12-04T23:03:22.702Z,8.85
2022-12-04T23:08:23.625Z,7.75
2022-12-04T23:13:24.367Z,9.55
2022-12-04T23:18:26.392Z,8.43
2022-12-04T23:23:27.218Z,7.15
2022-12-04T23:28:28.452Z,7.07
2022-12-04T23:33:29.818Z,6.87
2022-12-04T23:38:30.837Z,5.90
2022-12-04T23:43:32.525Z,8.35
2022-12-04T23:48:33.824Z,17.35
2022-12-04T23:53:35.003Z,16.08
2022-12-04T23:58:36.380Z,13.38
